createdAt,value
2018-08-16T00:01:13.376Z,9.37
2018-08-16T00:05:15.906Z,12.40
2018-08-16T00:09:18.251Z,8.63
2018-08-16T00:13:20.527Z,10.43
2018-08-16T00:17:22.722Z,10.27
2018-08-16T00:21:24.917Z,9.67
2018-08-16T00:25:27.105Z,9.87
2018-08-16T00:29:29.307Z,8.80
2018-08-16T00:33:31.538Z,9.33
2018-08-16T00:37:33.752Z,9.43
2018-08-16T00:41:35.919Z,8.80
2018-08-16T00:45:38.091Z,9.23
2018-08-16T00:49:40.283Z,9.37
2018-08-16T00:53:42.441Z,9.33
2018-08-16T00:57:44.687Z,9.57
2018-08-16T01:01:46.909Z,9.47
2018-08-16T01:05:49.078Z,9.80
2018-08-16T01:09:51.268Z,10.57
2018-08-16T01:13:53.470Z,11.13
2018-08-16T01:17:55.680Z,10.90
2018-08-16T01:21:57.870Z,10.07
2018-08-16T01:26:00.043Z,10.50
2018-08-16T01:30:02.273Z,10.47
2018-08-16T01:34:04.496Z,11.90
2018-08-16T01:38:06.670Z,11.27
2018-08-16T01:42:08.878Z,12.23
2018-08-16T01:46:11.366Z,10.47
2018-08-16T01:50:13.563Z,10.70
2018-08-16T01:54:15.779Z,11.23
2018-08-16T01:58:17.967Z,10.17
2018-08-16T02:02:20.203Z,12.03
2018-08-16T02:06:22.371Z,10.57
2018-08-16T02:10:24.840Z,14.37
2018-08-16T02:14:27.014Z,11.50
2018-08-16T02:18:29.248Z,10.50
2018-08-16T02:22:31.461Z,10.30
2018-08-16T02:26:33.687Z,10.17
2018-08-16T02:30:35.920Z,11.27
2018-08-16T02:34:38.737Z,11.57
2018-08-16T02:38:41.026Z,10.87
2018-08-16T02:42:43.228Z,11.07
2018-08-16T02:46:45.380Z,10.63
2018-08-16T02:50:47.546Z,9.57
2018-08-16T02:54:49.707Z,10.33
2018-08-16T02:58:51.861Z,11.83
2018-08-16T03:02:54.015Z,12.47
2018-08-16T03:06:56.182Z,11.70
2018-08-16T03:10:58.351Z,12.90
2018-08-16T03:15:00.491Z,12.60
2018-08-16T03:19:02.743Z,13.67
2018-08-16T03:23:04.995Z,12.20
2018-08-16T03:27:07.180Z,11.80
2018-08-16T03:31:09.369Z,11.20
2018-08-16T03:35:11.572Z,10.10
2018-08-16T03:39:13.733Z,11.43
2018-08-16T03:43:15.878Z,11.93
2018-08-16T03:47:18.024Z,11.47
2018-08-16T03:51:20.213Z,10.80
2018-08-16T03:55:22.455Z,11.23
2018-08-16T03:59:24.555Z,13.20
2018-08-16T04:03:26.706Z,12.20
2018-08-16T04:07:29.055Z,11.57
2018-08-16T04:11:31.207Z,10.83
2018-08-16T04:15:33.372Z,10.70
2018-08-16T04:19:36.882Z,10.43
2018-08-16T04:23:39.048Z,11.17
2018-08-16T04:27:41.238Z,10.27
2018-08-16T04:31:43.443Z,12.13
2018-08-16T04:35:45.599Z,9.90
2018-08-16T04:39:47.759Z,10.93
2018-08-16T04:43:49.903Z,11.70
2018-08-16T04:47:52.095Z,11.73
2018-08-16T04:51:54.246Z,11.20
2018-08-16T04:55:56.415Z,11.30
2018-08-16T04:59:58.581Z,12.00
2018-08-16T05:04:01.448Z,10.70
2018-08-16T05:08:03.731Z,10.43
2018-08-16T05:12:05.936Z,11.10
2018-08-16T05:16:09.058Z,10.40
2018-08-16T05:20:12.722Z,12.17
2018-08-16T05:24:14.854Z,10.27
2018-08-16T05:28:17.026Z,10.47
2018-08-16T05:32:19.236Z,9.40
2018-08-16T05:36:21.413Z,10.10
2018-08-16T05:40:23.616Z,9.33
2018-08-16T05:44:26.866Z,10.63
2018-08-16T05:48:29.256Z,9.57
2018-08-16T05:52:31.496Z,8.53
2018-08-16T05:56:33.693Z,10.30
2018-08-16T06:00:36.693Z,11.27
2018-08-16T06:04:39.848Z,10.97
2018-08-16T06:08:42.046Z,10.03
2018-08-16T06:12:44.225Z,9.43
2018-08-16T06:16:46.512Z,20.40
2018-08-16T06:20:49.343Z,10.23
2018-08-16T06:24:51.503Z,11.03
2018-08-16T06:28:53.746Z,10.27
2018-08-16T06:32:56.930Z,9.10
2018-08-16T06:37:00.079Z,8.73
2018-08-16T06:41:02.244Z,8.90
2018-08-16T06:45:07.142Z,8.90
2018-08-16T06:49:10.508Z,10.43
2018-08-16T06:53:12.748Z,7.57
2018-08-16T06:57:14.953Z,7.23
2018-08-16T07:01:17.376Z,7.20
2018-08-16T07:05:19.639Z,7.93
2018-08-16T07:09:21.841Z,6.53
2018-08-16T07:13:24.071Z,6.30
2018-08-16T07:17:26.281Z,5.80
2018-08-16T07:21:28.426Z,6.40
2018-08-16T07:25:31.351Z,7.13
2018-08-16T07:29:33.652Z,11.07
2018-08-16T07:33:35.930Z,5.47
2018-08-16T07:37:40.325Z,5.50
2018-08-16T07:41:43.507Z,6.57
2018-08-16T07:45:45.847Z,6.20
2018-08-16T07:49:47.960Z,6.30
2018-08-16T07:53:50.960Z,4.83
2018-08-16T07:57:53.846Z,6.33
2018-08-16T08:01:56.211Z,5.87
2018-08-16T08:05:59.212Z,6.03
2018-08-16T08:10:01.503Z,5.67
2018-08-16T08:14:03.904Z,5.67
2018-08-16T08:18:06.247Z,5.00
2018-08-16T08:22:08.503Z,5.47
2018-08-16T08:26:11.595Z,5.33
2018-08-16T08:30:15.749Z,6.10
2018-08-16T08:34:17.960Z,5.90
2018-08-16T08:38:20.493Z,6.73
2018-08-16T08:42:22.758Z,5.07
2018-08-16T08:46:24.912Z,5.13
2018-08-16T08:50:27.248Z,5.40
2018-08-16T08:54:43.123Z,5.77
2018-08-16T08:58:49.243Z,5.57
2018-08-16T09:02:51.497Z,4.37
2018-08-16T09:06:54.512Z,8.37
2018-08-16T09:11:10.668Z,9.47
2018-08-16T09:15:49.599Z,10.07
2018-08-16T09:19:52.602Z,7.93
2018-08-16T09:23:55.967Z,5.03
2018-08-16T09:27:58.092Z,3.33
2018-08-16T09:33:13.342Z,4.27
2018-08-16T09:37:20.706Z,10.47
2018-08-16T09:41:23.000Z,4.00
2018-08-16T09:45:37.070Z,4.20
2018-08-16T09:49:56.126Z,3.57
2018-08-16T09:53:58.330Z,7.17
2018-08-16T09:58:00.938Z,6.10
2018-08-16T10:02:04.105Z,4.97
2018-08-16T10:06:06.298Z,5.00
2018-08-16T10:10:08.495Z,7.33
2018-08-16T10:14:10.752Z,4.83
2018-08-16T10:18:12.911Z,6.73
2018-08-16T10:22:15.108Z,3.73
2018-08-16T10:26:17.962Z,4.33
2018-08-16T10:30:21.581Z,3.80
2018-08-16T10:34:24.419Z,4.47
2018-08-16T10:38:26.887Z,4.80
2018-08-16T10:42:29.950Z,3.53
2018-08-16T10:46:33.664Z,4.97
2018-08-16T10:50:36.085Z,4.00
2018-08-16T10:54:38.967Z,3.70
2018-08-16T10:58:42.672Z,3.70
2018-08-16T11:02:45.846Z,4.13
2018-08-16T11:06:48.100Z,3.67
2018-08-16T11:10:50.296Z,4.10
2018-08-16T11:14:52.512Z,4.40
2018-08-16T11:18:54.756Z,5.33
2018-08-16T11:22:58.070Z,5.47
2018-08-16T11:27:00.358Z,5.60
2018-08-16T11:31:02.553Z,3.77
2018-08-16T11:35:05.391Z,3.83
2018-08-16T11:39:07.990Z,4.17
2018-08-16T11:43:10.160Z,3.93
2018-08-16T11:47:12.809Z,4.67
2018-08-16T11:51:15.058Z,4.40
2018-08-16T11:55:17.514Z,4.47
2018-08-16T11:59:20.628Z,5.33
2018-08-16T12:03:22.863Z,3.50
2018-08-16T12:07:25.008Z,4.30
2018-08-16T12:11:27.174Z,4.67
2018-08-16T12:15:29.745Z,3.43
2018-08-16T12:19:32.142Z,4.07
2018-08-16T12:23:34.406Z,3.73
2018-08-16T12:27:37.117Z,3.57
2018-08-16T12:31:39.373Z,3.33
2018-08-16T12:35:41.593Z,4.33
2018-08-16T12:39:43.943Z,3.33
2018-08-16T12:43:46.147Z,4.63
2018-08-16T12:47:48.458Z,3.10
2018-08-16T12:51:50.641Z,5.10
2018-08-16T12:55:52.816Z,5.60
2018-08-16T12:59:55.008Z,3.07
2018-08-16T13:03:57.277Z,3.37
2018-08-16T13:07:59.631Z,5.57
2018-08-16T13:12:01.864Z,3.07
2018-08-16T13:16:04.163Z,2.60
2018-08-16T13:20:07.167Z,2.93
2018-08-16T13:24:09.444Z,3.13
2018-08-16T13:28:11.848Z,3.43
2018-08-16T13:32:14.914Z,13.50
2018-08-16T13:36:18.394Z,2.97
2018-08-16T13:40:20.597Z,2.80
2018-08-16T13:44:22.841Z,2.40
2018-08-16T13:48:25.037Z,3.93
2018-08-16T13:52:27.221Z,3.43
2018-08-16T13:56:29.515Z,3.07
2018-08-16T14:00:31.726Z,2.63
2018-08-16T14:04:33.972Z,4.67
2018-08-16T14:08:36.140Z,3.93
2018-08-16T14:12:38.354Z,2.93
2018-08-16T14:16:40.649Z,4.53
2018-08-16T14:20:42.921Z,4.07
2018-08-16T14:24:45.158Z,2.50
2018-08-16T14:28:47.339Z,3.30
2018-08-16T14:32:49.519Z,3.30
2018-08-16T14:36:51.766Z,4.00
2018-08-16T14:40:53.919Z,3.50
2018-08-16T14:44:56.084Z,4.17
2018-08-16T14:48:58.269Z,4.17
2018-08-16T14:53:00.559Z,2.60
2018-08-16T14:57:02.792Z,4.20
2018-08-16T15:01:05.073Z,5.20
2018-08-16T15:05:07.709Z,2.97
2018-08-16T15:09:10.995Z,3.43
2018-08-16T15:13:13.235Z,3.73
2018-08-16T15:17:15.434Z,4.13
2018-08-16T15:21:17.703Z,3.40
2018-08-16T15:25:19.933Z,2.97
2018-08-16T15:29:22.111Z,3.83
2018-08-16T15:33:24.339Z,4.37
2018-08-16T15:37:26.526Z,4.53
2018-08-16T15:41:29.193Z,4.00
2018-08-16T15:45:31.344Z,6.10
2018-08-16T15:49:33.547Z,3.80
2018-08-16T15:53:36.229Z,3.50
2018-08-16T15:57:38.882Z,4.23
2018-08-16T16:01:41.179Z,3.93
2018-08-16T16:05:43.521Z,3.60
2018-08-16T16:09:45.950Z,3.30
2018-08-16T16:13:48.156Z,3.87
2018-08-16T16:17:50.776Z,3.87
2018-08-16T16:21:53.008Z,3.90
2018-08-16T16:25:55.204Z,5.43
2018-08-16T16:29:57.403Z,3.87
2018-08-16T16:34:00.496Z,3.33
2018-08-16T16:38:03.033Z,3.47
2018-08-16T16:42:05.897Z,3.80
2018-08-16T16:46:08.212Z,3.60
2018-08-16T16:50:10.807Z,3.30
2018-08-16T16:54:13.023Z,3.30
2018-08-16T16:58:15.225Z,3.70
2018-08-16T17:02:17.442Z,3.60
2018-08-16T17:06:19.763Z,4.00
2018-08-16T17:10:21.947Z,3.10
2018-08-16T17:14:24.215Z,5.40
2018-08-16T17:18:26.411Z,3.20
2018-08-16T17:22:28.599Z,4.50
2018-08-16T17:26:30.901Z,4.00
2018-08-16T17:30:33.068Z,3.57
2018-08-16T17:34:35.378Z,4.30
2018-08-16T17:38:37.575Z,3.67
2018-08-16T17:42:39.762Z,4.20
2018-08-16T17:46:41.984Z,3.27
2018-08-16T17:50:44.160Z,4.07
2018-08-16T17:54:47.521Z,4.00
2018-08-16T17:58:49.716Z,3.40
2018-08-16T18:02:51.926Z,5.90
2018-08-16T18:06:54.149Z,3.83
2018-08-16T18:10:57.260Z,3.87
2018-08-16T18:14:59.439Z,3.20
2018-08-16T18:19:01.768Z,3.97
2018-08-16T18:23:04.044Z,3.30
2018-08-16T18:27:06.420Z,3.47
2018-08-16T18:31:08.609Z,3.70
2018-08-16T18:35:10.980Z,3.70
2018-08-16T18:39:13.317Z,3.30
2018-08-16T18:43:15.787Z,3.70
2018-08-16T18:47:18.058Z,3.47
2018-08-16T18:51:20.276Z,3.33
2018-08-16T18:55:22.558Z,4.40
2018-08-16T18:59:27.180Z,3.83
2018-08-16T19:03:30.055Z,4.93
2018-08-16T19:07:32.343Z,3.20
2018-08-16T19:11:34.518Z,4.00
2018-08-16T19:15:36.779Z,4.67
2018-08-16T19:19:39.014Z,4.60
2018-08-16T19:23:41.626Z,5.23
2018-08-16T19:27:44.040Z,5.83
2018-08-16T19:31:46.316Z,5.63
2018-08-16T19:35:49.596Z,5.47
2018-08-16T19:39:51.752Z,5.80
2018-08-16T19:43:54.032Z,5.93
2018-08-16T19:47:56.409Z,6.73
2018-08-16T19:51:58.685Z,5.67
2018-08-16T19:56:01.712Z,5.83
2018-08-16T20:00:06.196Z,5.97
2018-08-16T20:04:08.490Z,7.90
2018-08-16T20:08:10.688Z,6.35
2018-08-16T20:12:12.900Z,6.63
2018-08-16T20:16:15.463Z,7.03
2018-08-16T20:20:17.695Z,5.87
2018-08-16T20:24:20.015Z,7.27
2018-08-16T20:28:22.241Z,6.03
2018-08-16T20:32:24.511Z,6.10
2018-08-16T20:36:26.787Z,7.80
2018-08-16T20:40:29.047Z,6.23
2018-08-16T20:44:31.312Z,5.57
2018-08-16T20:48:33.553Z,6.87
2018-08-16T20:52:36.051Z,5.53
2018-08-16T20:56:38.312Z,5.63
2018-08-16T21:00:41.309Z,5.53
2018-08-16T21:04:43.531Z,6.57
2018-08-16T21:08:46.021Z,6.70
2018-08-16T21:12:48.187Z,5.73
2018-08-16T21:16:50.376Z,7.33
2018-08-16T21:20:52.619Z,7.20
2018-08-16T21:24:54.830Z,8.13
2018-08-16T21:28:57.040Z,8.37
2018-08-16T21:32:59.233Z,9.03
2018-08-16T21:37:01.426Z,7.90
2018-08-16T21:41:04.159Z,6.90
2018-08-16T21:45:06.376Z,6.70
2018-08-16T21:49:08.615Z,6.93
2018-08-16T21:53:10.787Z,8.67
2018-08-16T21:57:12.996Z,9.13
2018-08-16T22:01:15.274Z,7.47
2018-08-16T22:05:17.567Z,7.23
2018-08-16T22:09:19.840Z,6.87
2018-08-16T22:13:22.092Z,7.60
2018-08-16T22:17:24.247Z,7.13
2018-08-16T22:21:26.483Z,8.03
2018-08-16T22:25:28.816Z,8.10
2018-08-16T22:29:30.995Z,7.83
2018-08-16T22:33:33.215Z,7.70
2018-08-16T22:37:35.359Z,7.07
2018-08-16T22:41:37.632Z,8.73
2018-08-16T22:45:39.921Z,8.50
2018-08-16T22:49:42.127Z,9.60
2018-08-16T22:53:44.322Z,8.07
2018-08-16T22:57:46.529Z,7.50
2018-08-16T23:01:48.695Z,8.63
2018-08-16T23:05:50.889Z,8.30
2018-08-16T23:09:53.106Z,8.23
2018-08-16T23:13:55.277Z,10.40
2018-08-16T23:17:57.439Z,9.93
2018-08-16T23:22:00.306Z,9.57
2018-08-16T23:26:02.515Z,10.63
2018-08-16T23:30:07.828Z,8.13
2018-08-16T23:34:09.989Z,7.77
2018-08-16T23:38:12.183Z,7.70
2018-08-16T23:42:14.413Z,7.87
2018-08-16T23:46:16.603Z,8.27
2018-08-16T23:50:18.809Z,7.37
2018-08-16T23:54:20.997Z,8.90
2018-08-16T23:58:23.211Z,9.20
